createdAt,value
2018-07-15T00:01:08.451Z,3.60
2018-07-15T00:03:37.320Z,3.93
2018-07-15T00:06:06.092Z,4.57
2018-07-15T00:08:34.852Z,4.27
2018-07-15T00:11:03.499Z,4.23
2018-07-15T00:13:32.186Z,4.47
2018-07-15T00:16:00.833Z,4.63
2018-07-15T00:18:29.406Z,4.23
2018-07-15T00:20:58.032Z,3.73
2018-07-15T00:23:26.755Z,4.00
2018-07-15T00:25:55.492Z,4.00
2018-07-15T00:28:24.167Z,4.27
2018-07-15T00:30:53.062Z,4.33
2018-07-15T00:33:22.079Z,4.50
2018-07-15T00:35:50.676Z,4.43
2018-07-15T00:38:19.252Z,4.07
2018-07-15T00:40:47.791Z,4.77
2018-07-15T00:43:16.353Z,4.30
2018-07-15T00:45:44.889Z,4.10
2018-07-15T00:48:13.474Z,5.00
2018-07-15T00:50:42.032Z,4.97
2018-07-15T00:53:10.639Z,4.80
2018-07-15T00:55:39.456Z,5.43
2018-07-15T00:58:08.180Z,5.43
2018-07-15T01:00:41.974Z,5.10
2018-07-15T01:03:10.678Z,5.10
2018-07-15T01:05:39.466Z,5.37
2018-07-15T01:08:08.485Z,5.10
2018-07-15T01:10:37.244Z,4.83
2018-07-15T01:13:06.224Z,5.13
2018-07-15T01:15:34.849Z,5.10
2018-07-15T01:18:03.771Z,5.30
2018-07-15T01:20:32.635Z,5.00
2018-07-15T01:23:01.260Z,4.87
2018-07-15T01:25:30.016Z,4.70
2018-07-15T01:27:58.629Z,4.90
2018-07-15T01:30:27.407Z,5.30
2018-07-15T01:32:56.024Z,5.20
2018-07-15T01:35:24.671Z,5.40
2018-07-15T01:37:53.467Z,5.40
2018-07-15T01:40:22.045Z,5.47
2018-07-15T01:42:50.676Z,5.50
2018-07-15T01:45:19.452Z,4.93
2018-07-15T01:47:48.372Z,5.03
2018-07-15T01:50:17.416Z,5.10
2018-07-15T01:52:46.441Z,5.80
2018-07-15T01:55:15.348Z,5.90
2018-07-15T01:57:44.153Z,5.50
2018-07-15T02:00:13.123Z,5.40
2018-07-15T02:02:42.046Z,5.73
2018-07-15T02:05:11.215Z,5.90
2018-07-15T02:07:40.075Z,5.17
2018-07-15T02:10:08.941Z,6.00
2018-07-15T02:12:37.747Z,5.37
2018-07-15T02:15:06.580Z,5.87
2018-07-15T02:17:35.529Z,5.83
2018-07-15T02:20:04.475Z,5.50
2018-07-15T02:22:33.505Z,5.73
2018-07-15T02:25:02.422Z,5.13
2018-07-15T02:27:31.592Z,5.37
2018-07-15T02:30:00.402Z,5.37
2018-07-15T02:32:29.331Z,5.70
2018-07-15T02:34:58.132Z,5.63
2018-07-15T02:37:27.009Z,5.70
2018-07-15T02:39:55.841Z,5.67
2018-07-15T02:42:24.823Z,6.00
2018-07-15T02:44:53.754Z,5.70
2018-07-15T02:47:22.558Z,5.57
2018-07-15T02:49:51.620Z,6.40
2018-07-15T02:52:20.594Z,6.47
2018-07-15T02:54:49.423Z,5.73
2018-07-15T02:57:18.439Z,5.80
2018-07-15T02:59:47.297Z,5.90
2018-07-15T03:02:16.319Z,5.80
2018-07-15T03:04:45.180Z,5.93
2018-07-15T03:07:14.038Z,5.80
2018-07-15T03:09:42.867Z,6.03
2018-07-15T03:12:11.895Z,5.93
2018-07-15T03:14:40.587Z,5.27
2018-07-15T03:17:09.463Z,6.07
2018-07-15T03:19:38.082Z,5.73
2018-07-15T03:22:06.751Z,6.27
2018-07-15T03:24:35.536Z,5.50
2018-07-15T03:27:04.150Z,6.33
2018-07-15T03:29:32.780Z,7.00
2018-07-15T03:32:01.510Z,6.87
2018-07-15T03:34:30.192Z,7.50
2018-07-15T03:36:58.834Z,6.90
2018-07-15T03:39:27.444Z,6.30
2018-07-15T03:41:56.063Z,6.33
2018-07-15T03:44:24.800Z,6.57
2018-07-15T03:46:53.535Z,7.10
2018-07-15T03:49:22.283Z,6.80
2018-07-15T03:51:51.018Z,6.37
2018-07-15T03:54:19.706Z,6.20
2018-07-15T03:56:48.366Z,6.33
2018-07-15T03:59:17.274Z,6.13
2018-07-15T04:01:46.396Z,6.00
2018-07-15T04:04:15.439Z,6.67
2018-07-15T04:06:44.553Z,6.67
2018-07-15T04:09:13.399Z,6.67
2018-07-15T04:11:42.380Z,6.20
2018-07-15T04:14:11.474Z,6.37
2018-07-15T04:16:40.453Z,6.73
2018-07-15T04:19:10.261Z,5.90
2018-07-15T04:21:39.539Z,6.83
2018-07-15T04:24:08.879Z,6.10
2018-07-15T04:26:37.722Z,6.20
2018-07-15T04:29:06.529Z,6.37
2018-07-15T04:31:35.347Z,6.13
2018-07-15T04:34:04.285Z,6.20
2018-07-15T04:36:32.989Z,6.53
2018-07-15T04:39:01.756Z,6.13
2018-07-15T04:41:30.635Z,7.10
2018-07-15T04:43:59.555Z,6.40
2018-07-15T04:46:28.999Z,6.30
2018-07-15T04:48:57.681Z,6.57
2018-07-15T04:51:26.334Z,6.87
2018-07-15T04:53:55.112Z,6.73
2018-07-15T04:56:23.912Z,7.30
2018-07-15T04:58:52.637Z,7.23
2018-07-15T05:01:21.312Z,7.00
2018-07-15T05:03:50.149Z,6.73
2018-07-15T05:06:19.280Z,7.40
2018-07-15T05:08:48.230Z,6.73
2018-07-15T05:11:16.944Z,7.07
2018-07-15T05:13:45.895Z,7.73
2018-07-15T05:16:14.630Z,6.87
2018-07-15T05:18:43.506Z,7.47
2018-07-15T05:21:12.312Z,7.07
2018-07-15T05:23:41.098Z,6.83
2018-07-15T05:26:10.096Z,6.90
2018-07-15T05:28:38.960Z,6.80
2018-07-15T05:31:07.912Z,6.93
2018-07-15T05:33:36.873Z,7.13
2018-07-15T05:36:05.695Z,7.53
2018-07-15T05:38:34.652Z,7.00
2018-07-15T05:41:03.807Z,7.23
2018-07-15T05:43:33.195Z,7.20
2018-07-15T05:46:02.655Z,6.60
2018-07-15T05:48:32.471Z,7.13
2018-07-15T05:51:01.573Z,7.27
2018-07-15T05:53:30.602Z,6.87
2018-07-15T05:56:00.060Z,6.50
2018-07-15T05:58:29.362Z,6.70
2018-07-15T06:00:58.404Z,6.47
2018-07-15T06:03:27.350Z,6.07
2018-07-15T06:05:56.858Z,6.13
2018-07-15T06:08:25.632Z,5.83
2018-07-15T06:10:54.424Z,6.73
2018-07-15T06:13:23.236Z,7.53
2018-07-15T06:15:52.092Z,6.70
2018-07-15T06:18:20.750Z,6.40
2018-07-15T06:20:49.775Z,6.23
2018-07-15T06:23:19.175Z,6.63
2018-07-15T06:25:48.035Z,7.47
2018-07-15T06:28:16.927Z,7.00
2018-07-15T06:30:45.734Z,6.83
2018-07-15T06:33:14.706Z,6.60
2018-07-15T06:35:43.488Z,6.23
2018-07-15T06:38:12.303Z,6.27
2018-07-15T06:40:41.262Z,6.60
2018-07-15T06:43:09.914Z,6.30
2018-07-15T06:45:38.701Z,6.40
2018-07-15T06:48:07.421Z,6.33
2018-07-15T06:50:36.286Z,6.93
2018-07-15T06:53:04.990Z,6.40
2018-07-15T06:55:33.859Z,6.23
2018-07-15T06:58:02.514Z,7.30
2018-07-15T07:00:31.153Z,6.60
2018-07-15T07:02:59.885Z,6.40
2018-07-15T07:05:28.514Z,6.33
2018-07-15T07:07:57.398Z,6.03
2018-07-15T07:10:25.955Z,5.80
2018-07-15T07:12:54.822Z,5.73
2018-07-15T07:15:23.469Z,5.60
2018-07-15T07:17:52.362Z,5.60
2018-07-15T07:20:21.415Z,4.40
2018-07-15T07:22:50.273Z,3.80
2018-07-15T07:25:18.974Z,4.53
2018-07-15T07:27:47.853Z,3.60
2018-07-15T07:30:16.528Z,2.53
2018-07-15T07:32:45.319Z,3.23
2018-07-15T07:35:14.099Z,2.93
2018-07-15T07:37:43.099Z,2.23
2018-07-15T07:40:12.139Z,2.27
2018-07-15T07:42:41.195Z,2.17
2018-07-15T07:45:10.189Z,2.00
2018-07-15T07:47:39.088Z,2.10
2018-07-15T07:50:07.894Z,2.07
2018-07-15T07:52:36.743Z,1.63
2018-07-15T07:55:05.591Z,2.33
2018-07-15T07:57:34.257Z,1.70
2018-07-15T08:00:02.846Z,1.70
2018-07-15T08:02:31.688Z,1.77
2018-07-15T08:05:00.389Z,1.70
2018-07-15T08:07:29.203Z,2.00
2018-07-15T08:09:58.288Z,2.30
2018-07-15T08:12:27.180Z,1.90
2018-07-15T08:14:55.996Z,2.20
2018-07-15T08:17:24.744Z,2.30
2018-07-15T08:19:53.548Z,1.87
2018-07-15T08:22:22.323Z,1.98
2018-07-15T08:24:51.003Z,2.35
2018-07-15T08:27:19.896Z,2.15
2018-07-15T08:29:59.609Z,2.65
2018-07-15T08:32:28.602Z,2.40
2018-07-15T08:34:57.484Z,2.50
2018-07-15T08:37:26.293Z,5.55
2018-07-15T08:39:55.000Z,2.90
2018-07-15T08:42:23.687Z,2.85
2018-07-15T08:44:52.267Z,2.90
2018-07-15T08:47:21.057Z,2.25
2018-07-15T08:49:49.676Z,2.55
2018-07-15T08:52:18.518Z,1.92
2018-07-15T08:54:47.191Z,2.60
2018-07-15T08:57:16.135Z,2.33
2018-07-15T08:59:44.736Z,2.27
2018-07-15T09:02:13.646Z,1.92
2018-07-15T09:04:42.175Z,2.77
2018-07-15T09:07:11.086Z,2.12
2018-07-15T09:09:40.827Z,2.27
2018-07-15T09:12:09.469Z,2.40
2018-07-15T09:14:38.075Z,2.67
2018-07-15T09:17:06.954Z,2.92
2018-07-15T09:19:35.843Z,2.90
2018-07-15T09:22:04.634Z,3.00
2018-07-15T09:24:34.303Z,3.00
2018-07-15T09:27:03.258Z,3.10
2018-07-15T09:29:32.108Z,2.95
2018-07-15T09:32:00.895Z,3.00
2018-07-15T09:34:29.759Z,3.02
2018-07-15T09:36:58.765Z,3.10
2018-07-15T09:39:27.528Z,3.50
2018-07-15T09:41:56.688Z,3.72
2018-07-15T09:44:25.755Z,4.12
2018-07-15T09:46:54.754Z,4.50
2018-07-15T09:49:24.146Z,3.30
2018-07-15T09:51:53.450Z,3.10
2018-07-15T09:54:22.224Z,3.20
2018-07-15T09:56:50.963Z,3.20
2018-07-15T09:59:19.643Z,3.47
2018-07-15T10:01:48.192Z,2.87
2018-07-15T10:04:16.921Z,3.17
2018-07-15T10:06:45.529Z,2.17
2018-07-15T10:09:14.440Z,2.70
2018-07-15T10:11:43.123Z,2.80
2018-07-15T10:14:11.805Z,2.85
2018-07-15T10:16:40.565Z,2.87
2018-07-15T10:19:09.222Z,4.03
2018-07-15T10:21:37.899Z,2.52
2018-07-15T10:24:06.503Z,2.80
2018-07-15T10:26:35.178Z,2.60
2018-07-15T10:29:03.834Z,4.20
2018-07-15T10:31:32.420Z,4.08
2018-07-15T10:34:01.048Z,2.37
2018-07-15T10:36:29.578Z,1.80
2018-07-15T10:38:58.546Z,1.90
2018-07-15T10:41:27.450Z,2.17
2018-07-15T10:43:56.423Z,2.80
2018-07-15T10:46:25.100Z,2.58
2018-07-15T10:48:53.863Z,2.35
2018-07-15T10:51:22.483Z,2.25
2018-07-15T10:53:51.150Z,2.00
2018-07-15T10:56:19.768Z,2.20
2018-07-15T10:58:48.491Z,2.25
2018-07-15T11:01:17.242Z,1.90
2018-07-15T11:03:45.864Z,1.80
2018-07-15T11:06:14.837Z,1.90
2018-07-15T11:08:43.596Z,2.00
2018-07-15T11:11:12.619Z,2.17
2018-07-15T11:13:41.411Z,2.17
2018-07-15T11:16:10.041Z,2.20
2018-07-15T11:18:38.754Z,2.15
2018-07-15T11:21:07.468Z,2.00
2018-07-15T11:23:36.076Z,2.37
2018-07-15T11:26:04.739Z,2.00
2018-07-15T11:28:33.503Z,2.45
2018-07-15T11:31:02.494Z,2.00
2018-07-15T11:33:31.019Z,1.70
2018-07-15T11:35:59.785Z,2.00
2018-07-15T11:38:28.519Z,2.00
2018-07-15T11:40:57.125Z,1.80
2018-07-15T11:43:25.797Z,2.12
2018-07-15T11:45:54.509Z,2.33
2018-07-15T11:48:23.258Z,2.10
2018-07-15T11:50:51.960Z,2.10
2018-07-15T11:53:20.817Z,1.90
2018-07-15T11:55:49.611Z,2.00
2018-07-15T11:58:18.810Z,1.87
2018-07-15T12:00:47.515Z,2.05
2018-07-15T12:03:16.546Z,2.12
2018-07-15T12:05:45.312Z,1.55
2018-07-15T12:08:14.009Z,2.33
2018-07-15T12:10:42.719Z,1.67
2018-07-15T12:13:11.392Z,1.70
2018-07-15T12:15:40.230Z,2.27
2018-07-15T12:18:09.122Z,1.75
2018-07-15T12:20:37.926Z,1.60
2018-07-15T12:23:06.595Z,2.40
2018-07-15T12:25:35.328Z,1.90
2018-07-15T12:28:04.205Z,1.53
2018-07-15T12:30:33.034Z,1.87
2018-07-15T12:33:01.788Z,2.07
2018-07-15T12:35:30.475Z,2.07
2018-07-15T12:37:59.161Z,2.03
2018-07-15T12:40:27.961Z,2.73
2018-07-15T12:42:56.635Z,2.00
2018-07-15T12:45:25.252Z,2.40
2018-07-15T12:47:54.005Z,3.00
2018-07-15T12:50:22.671Z,2.37
2018-07-15T12:52:51.510Z,1.70
2018-07-15T12:55:20.331Z,1.90
2018-07-15T12:57:49.060Z,1.93
2018-07-15T13:00:17.687Z,2.23
2018-07-15T13:02:46.302Z,1.57
2018-07-15T13:05:15.011Z,2.70
2018-07-15T13:07:43.596Z,2.13
2018-07-15T13:10:12.208Z,1.97
2018-07-15T13:12:40.783Z,1.63
2018-07-15T13:15:09.434Z,1.60
2018-07-15T13:17:38.100Z,1.60
2018-07-15T13:20:06.750Z,1.80
2018-07-15T13:22:35.417Z,1.60
2018-07-15T13:25:04.011Z,2.10
2018-07-15T13:27:32.648Z,1.70
2018-07-15T13:30:01.237Z,1.70
2018-07-15T13:32:29.916Z,1.90
2018-07-15T13:34:58.488Z,2.00
2018-07-15T13:37:27.072Z,2.30
2018-07-15T13:39:55.770Z,1.90
2018-07-15T13:42:24.361Z,1.93
2018-07-15T13:44:53.004Z,1.90
2018-07-15T13:47:21.628Z,1.60
2018-07-15T13:49:50.241Z,1.87
2018-07-15T13:52:18.833Z,2.03
2018-07-15T13:54:47.469Z,3.47
2018-07-15T13:57:16.154Z,2.17
2018-07-15T13:59:44.725Z,1.77
2018-07-15T14:02:13.383Z,2.17
2018-07-15T14:04:41.993Z,2.17
2018-07-15T14:07:10.599Z,2.07
2018-07-15T14:09:39.163Z,1.63
2018-07-15T14:12:07.810Z,4.67
2018-07-15T14:14:36.469Z,2.30
2018-07-15T14:17:05.156Z,2.10
2018-07-15T14:19:33.832Z,1.43
2018-07-15T14:22:02.553Z,1.53
2018-07-15T14:24:31.221Z,1.90
2018-07-15T14:26:59.821Z,1.53
2018-07-15T14:29:28.390Z,1.40
2018-07-15T14:31:56.990Z,2.70
2018-07-15T14:34:25.633Z,1.60
2018-07-15T14:36:54.234Z,1.73
2018-07-15T14:39:27.826Z,1.43
2018-07-15T14:41:56.344Z,1.50
2018-07-15T14:44:24.930Z,1.83
2018-07-15T14:46:53.519Z,2.60
2018-07-15T14:49:22.051Z,1.90
2018-07-15T14:51:50.805Z,2.23
2018-07-15T14:54:19.450Z,1.37
2018-07-15T14:56:48.119Z,1.30
2018-07-15T14:59:16.720Z,1.40
2018-07-15T15:01:45.356Z,1.60
2018-07-15T15:04:13.981Z,1.40
2018-07-15T15:06:42.547Z,1.77
2018-07-15T15:09:11.084Z,2.23
2018-07-15T15:11:39.698Z,1.30
2018-07-15T15:14:08.295Z,1.50
2018-07-15T15:16:36.834Z,2.20
2018-07-15T15:19:05.590Z,2.17
2018-07-15T15:21:34.182Z,1.97
2018-07-15T15:24:02.791Z,1.40
2018-07-15T15:26:31.320Z,1.20
2018-07-15T15:29:00.104Z,1.27
2018-07-15T15:31:28.730Z,1.30
2018-07-15T15:33:57.520Z,1.40
2018-07-15T15:36:26.319Z,1.23
2018-07-15T15:38:54.861Z,1.20
2018-07-15T15:41:23.428Z,1.30
2018-07-15T15:43:52.022Z,2.47
2018-07-15T15:46:20.629Z,1.30
2018-07-15T15:48:49.212Z,1.00
2018-07-15T15:51:17.926Z,1.07
2018-07-15T15:53:46.718Z,1.20
2018-07-15T15:56:15.504Z,1.43
2018-07-15T15:58:44.267Z,1.10
2018-07-15T16:01:13.179Z,0.90
2018-07-15T16:03:42.177Z,0.87
2018-07-15T16:06:11.924Z,1.20
2018-07-15T16:08:41.639Z,1.37
2018-07-15T16:11:14.555Z,1.20
2018-07-15T16:13:48.409Z,2.33
2018-07-15T16:16:18.432Z,1.30
2018-07-15T16:18:47.376Z,1.10
2018-07-15T16:21:17.188Z,0.83
2018-07-15T16:23:52.676Z,0.90
2018-07-15T16:26:26.263Z,1.00
2018-07-15T16:29:03.694Z,1.00
2018-07-15T16:34:19.391Z,1.00
2018-07-15T16:36:50.334Z,1.30
2018-07-15T16:39:19.928Z,0.90
2018-07-15T16:41:53.593Z,0.87
2018-07-15T16:44:23.033Z,1.00
2018-07-15T16:46:52.213Z,1.00
2018-07-15T16:49:21.241Z,0.90
2018-07-15T16:51:50.216Z,1.00
2018-07-15T16:54:19.153Z,0.70
2018-07-15T16:56:47.756Z,0.73
2018-07-15T16:59:16.294Z,0.80
2018-07-15T17:01:46.276Z,1.00
2018-07-15T17:04:19.332Z,0.90
2018-07-15T17:06:48.233Z,0.73
2018-07-15T17:09:17.008Z,0.93
2018-07-15T17:11:46.543Z,1.00
2018-07-15T17:14:15.485Z,0.50
2018-07-15T17:16:45.920Z,0.80
2018-07-15T17:19:14.644Z,0.80
2018-07-15T17:21:43.386Z,0.80
2018-07-15T17:24:12.167Z,1.03
2018-07-15T17:26:41.536Z,0.73
2018-07-15T17:29:10.883Z,0.70
2018-07-15T17:31:40.121Z,0.63
2018-07-15T17:34:08.813Z,0.83
2018-07-15T17:36:37.821Z,0.70
2018-07-15T17:39:06.982Z,2.73
2018-07-15T17:41:36.500Z,1.90
2018-07-15T17:44:05.415Z,0.80
2018-07-15T17:46:34.322Z,1.20
2018-07-15T17:49:03.379Z,0.63
2018-07-15T17:51:32.429Z,0.70
2018-07-15T17:54:01.494Z,0.90
2018-07-15T17:56:30.422Z,1.07
2018-07-15T17:58:59.221Z,1.03
2018-07-15T18:01:27.861Z,1.00
2018-07-15T18:03:56.559Z,1.00
2018-07-15T18:06:25.214Z,0.90
2018-07-15T18:08:53.832Z,0.90
2018-07-15T18:11:22.447Z,0.97
2018-07-15T18:13:51.091Z,0.80
2018-07-15T18:16:19.984Z,0.87
2018-07-15T18:18:48.640Z,1.10
2018-07-15T18:21:17.323Z,0.73
2018-07-15T18:23:46.050Z,0.90
2018-07-15T18:26:14.836Z,0.90
2018-07-15T18:28:43.479Z,0.90
2018-07-15T18:31:12.316Z,1.00
2018-07-15T18:33:41.169Z,0.90
2018-07-15T18:36:09.926Z,0.90
2018-07-15T18:38:38.598Z,0.70
2018-07-15T18:41:07.598Z,0.73
2018-07-15T18:43:36.500Z,0.80
2018-07-15T18:46:05.294Z,0.87
2018-07-15T18:48:34.044Z,0.67
2018-07-15T18:51:02.974Z,0.70
2018-07-15T18:53:31.971Z,1.10
2018-07-15T18:56:01.794Z,0.80
2018-07-15T18:58:30.462Z,0.80
2018-07-15T19:00:59.373Z,0.80
2018-07-15T19:03:28.105Z,1.10
2018-07-15T19:05:57.458Z,0.80
2018-07-15T19:08:26.085Z,0.80
2018-07-15T19:10:54.771Z,1.30
2018-07-15T19:13:23.382Z,0.67
2018-07-15T19:15:52.026Z,0.90
2018-07-15T19:18:20.796Z,0.80
2018-07-15T19:20:49.305Z,0.80
2018-07-15T19:23:17.836Z,0.80
2018-07-15T19:25:46.508Z,0.90
2018-07-15T19:28:15.429Z,0.73
2018-07-15T19:30:44.159Z,0.80
2018-07-15T19:33:12.843Z,0.80
2018-07-15T19:35:41.473Z,0.80
2018-07-15T19:38:10.103Z,1.23
2018-07-15T19:40:39.116Z,1.10
2018-07-15T19:43:07.798Z,0.80
2018-07-15T19:45:36.374Z,0.90
2018-07-15T19:48:05.063Z,0.80
2018-07-15T19:50:33.629Z,1.17
2018-07-15T19:53:02.225Z,1.00
2018-07-15T19:55:30.945Z,1.10
2018-07-15T19:57:59.754Z,1.20
2018-07-15T20:00:28.360Z,1.30
2018-07-15T20:02:56.979Z,1.20
2018-07-15T20:05:25.546Z,1.00
2018-07-15T20:07:54.122Z,1.20
2018-07-15T20:10:22.775Z,1.00
2018-07-15T20:12:51.372Z,1.10
2018-07-15T20:15:20.011Z,1.00
2018-07-15T20:17:48.601Z,1.20
2018-07-15T20:20:17.194Z,1.53
2018-07-15T20:22:45.876Z,1.40
2018-07-15T20:25:14.590Z,1.40
2018-07-15T20:27:43.143Z,1.57
2018-07-15T20:30:11.795Z,1.33
2018-07-15T20:32:40.380Z,1.20
2018-07-15T20:35:08.982Z,3.83
2018-07-15T20:37:37.782Z,1.30
2018-07-15T20:40:06.405Z,1.10
2018-07-15T20:42:35.195Z,1.30
2018-07-15T20:45:04.344Z,1.30
2018-07-15T20:47:33.102Z,1.10
2018-07-15T20:50:01.764Z,1.40
2018-07-15T20:52:30.538Z,1.07
2018-07-15T20:54:59.292Z,1.43
2018-07-15T20:57:28.023Z,1.50
2018-07-15T20:59:56.761Z,1.70
2018-07-15T21:02:25.546Z,2.40
2018-07-15T21:04:54.166Z,1.67
2018-07-15T21:07:23.009Z,1.40
2018-07-15T21:09:51.840Z,1.50
2018-07-15T21:12:21.429Z,1.57
2018-07-15T21:14:50.074Z,1.80
2018-07-15T21:17:18.794Z,2.00
2018-07-15T21:19:47.406Z,1.73
2018-07-15T21:22:16.101Z,1.20
2018-07-15T21:24:45.327Z,1.50
2018-07-15T21:27:14.060Z,1.20
2018-07-15T21:29:42.766Z,1.60
2018-07-15T21:32:11.652Z,1.70
2018-07-15T21:34:40.316Z,1.50
2018-07-15T21:37:09.934Z,1.20
2018-07-15T21:39:38.666Z,1.20
2018-07-15T21:42:07.283Z,1.70
2018-07-15T21:44:36.033Z,1.60
2018-07-15T21:47:04.588Z,1.93
2018-07-15T21:49:33.203Z,1.40
2018-07-15T21:52:01.843Z,1.53
2018-07-15T21:54:30.465Z,1.77
2018-07-15T21:56:59.306Z,1.87
2018-07-15T21:59:28.030Z,1.90
2018-07-15T22:01:56.682Z,1.40
2018-07-15T22:04:25.446Z,1.47
2018-07-15T22:07:05.085Z,1.60
2018-07-15T22:09:53.477Z,1.20
2018-07-15T22:12:22.197Z,1.70
2018-07-15T22:14:50.774Z,1.80
2018-07-15T22:17:19.626Z,2.10
2018-07-15T22:19:48.323Z,2.00
2018-07-15T22:22:17.316Z,1.53
2018-07-15T22:24:46.039Z,1.57
2018-07-15T22:27:14.806Z,1.70
2018-07-15T22:29:43.479Z,1.67
2018-07-15T22:32:12.149Z,1.47
2018-07-15T22:34:40.867Z,1.57
2018-07-15T22:37:09.928Z,1.63
2018-07-15T22:39:38.547Z,1.73
2018-07-15T22:42:07.340Z,1.60
2018-07-15T22:44:36.039Z,1.50
2018-07-15T22:47:04.737Z,1.90
2018-07-15T22:49:33.458Z,1.70
2018-07-15T22:52:02.269Z,1.50
2018-07-15T22:54:31.003Z,1.43
2018-07-15T22:56:59.737Z,1.50
2018-07-15T22:59:28.403Z,1.83
2018-07-15T23:01:57.183Z,1.60
2018-07-15T23:04:36.744Z,1.30
2018-07-15T23:07:05.402Z,1.20
2018-07-15T23:09:34.135Z,1.27
2018-07-15T23:12:02.699Z,1.37
2018-07-15T23:14:31.528Z,1.70
2018-07-15T23:17:00.137Z,1.40
2018-07-15T23:19:28.789Z,1.83
2018-07-15T23:21:57.387Z,1.60
2018-07-15T23:24:26.060Z,1.53
2018-07-15T23:26:54.780Z,1.73
2018-07-15T23:29:23.504Z,1.60
2018-07-15T23:31:52.202Z,1.50
2018-07-15T23:34:20.802Z,1.27
2018-07-15T23:36:49.547Z,1.47
2018-07-15T23:39:18.187Z,1.30
2018-07-15T23:41:46.857Z,1.47
2018-07-15T23:44:15.513Z,1.60
2018-07-15T23:46:44.336Z,1.60
2018-07-15T23:49:13.113Z,1.60
2018-07-15T23:51:41.788Z,1.70
2018-07-15T23:54:10.433Z,1.63
2018-07-15T23:56:39.140Z,1.70
2018-07-15T23:59:07.956Z,1.60
